Aeroporto :
LOGIN :

Iscrizione | Disclaimer

   EN    FR    IT 

 










Sommario :    VFR   VFR Marginale   IFR   IFR Intensivo   IFR Molto Intensivo
Visibilità : 
Base nubi : 
>= 8 km
>= 3000ft
5 / 8 km
1000 / 3000 ft
1500m / 5 km
500 / 1000 ft
800 / 1500m
200 / 500 ft
< 800m
< 200 ft
Simboli :   Temporali  Nebbia  Neve Forte  Precipitazioni Forti  Vento > 20 kt
SIGMETs :   Varie  Temporali  Ghiacco  Turbolenza  Onda orograficha  Ceneri Vulcaniche






- Altitudine del aeroporto : 49 ft
- Codice IATA : SEN


EGMC - Southend

ULTIMO METAR :
  • 171220Z 19012KT 9000 -SHRA FEW022 SCT049 14/11 Q1006

METARs OBSOLETI :
  • 171150Z 19008KT 9999 VCSH FEW022 SCT045 13/11 Q1006
  • 171120Z 19010KT 9999 FEW016 SCT027 14/09 Q1007
  • 171050Z 18010KT 9999 FEW016 SCT030 14/09 Q1007
  • 171020Z 20010KT 9999 FEW016 14/09 Q1007
  • 170950Z 18009KT 9999 FEW012 13/10 Q1007

TAF TAF EGMC
Valido dal 17 a 12 ore il 17 a 21 ore UTC


171101Z 1712/1721 19010KT 9999 SCT030
TEMPO 1712/1718 7000 SHRA
PROB30
TEMPO 1712/1718 20015G25KT 4000 +SHRA BKN014



MetMap, La meteo Aeronautica in un colpo d'occhio ! - Copyright ORBIFLY Dicembre 2007 - Disclaimer

ORBIFLY MET'MAP TEAM :

Programmazione e sviluppo : Alexandra Zaïnal
Concezione e sviluppo : Baudouin d'Aumeries
Co-Programmazione e sviluppo : Marc-Olivier Méhu
Supporto tecnico e logistico : Manuel Goepfert
Aiuto per la traduzione : Arnaldo La Scala

Contatto : metmap@orbifly.com




FONTI E CREDITI :

   NOAA